Airfield :
LOGIN :

Register | Disclaimer

   EN    FR    IT 

 










Legend :    VFR   Marginal VFR   IFR   Intensive IFR   Very Intensive IFR
Visi :
Ceiling :
>= 8 km
>= 3000ft
5 to 8 km
1000 to 3000 ft
1500m to 5 km
500 to 1000 ft
800 to 1500m
200 to 500 ft
< 800m
< 200 ft
Symbols :   Thunderstorms  Fog  Heavy snow  Heavy precipitations  Wind > 20 kt
SIGMETs :     Misc.  Thunderstorms  Icing  Turbulence  Mountain Waves  Volcanic Ashes







- Airport Elevation : 75 ft
- IATA code : MRH


EGYM - RAF Marham

CURRENT METAR :
  • 200828Z 26014KT 7000 -RA FEW006 BKN008 12/12 Q0999 GRN BECMG 9999 NSW BKN012 GRN

EXPIRED METARs :
  • 200816Z 24012KT 3000 RA SCT006 BKN008 12/12 Q0999 YLO1 BECMG 9999 NSW SCT008 GRN
  • 200650Z 17008KT 9999 FEW010 BKN013 OVC020 12/11 Q0997 REDZ GRN NOSIG
  • 200550Z 17012KT 9999 -DZ FEW010 SCT012 BKN018 12/11 Q0996 GRN NOSIG

TAF TAF EGYM
Valid from the 20 at 09:00 until the 20 at 18:00 UTC


200729Z 2009/2018 19011KT 9999 BKN010
BECMG 2009/2012 25013KT BKN020
TEMPO 2009/2012 7000 -RA
PROB40
TEMPO 2012/2016 7000 -RA SCT012
No reported NOTAMs for that airfield.
2 SIGMETs reported for the London FIR (EGTT) :
 
Severe turbulence
EGTT SIGMET 03 VALID 200700/201100 EGRR
EGTT LONDON FIR SEV TURB OBS WI N5130 E00200 - N5107 E00200 - N5100 E00128 - N5040 E00128 - N5012 E00017 - N5440 W00420 - N5438 W00126 - N5139 E00207 - N5130 E00200 FL250/370 MOV E 20KT NC=
Severe turbulence
EGTT SIGMET 02 VALID 200730/201130 EGRR
EGTT LONDON FIR SEV TURB FCST S OF LINE N4937 W00800 - N5125 E00200 SFC/FL060 MOV ESE 15KT NC=



MET'MAP, your aeronautical weather chart ! - Copyright ORBIFLY December 2007 - Disclaimer

ORBIFLY MET'MAP TEAM :

Programming & Development : Alexandra Zaïnal
Concept & Development : Baudouin d'Aumeries
Co-Development & Prog : Marc-Olivier Méhu
Technical & hardware support : Manuel Goepfert

Contact : metmap@orbifly.com




SOURCES & CREDITS :

   NOAA